EDT,Max TemperatureF,Mean TemperatureF,Min TemperatureF,Max Dew PointF,MeanDew PointF,Min DewpointF,Max Humidity, Mean Humidity, Min Humidity, Max Sea Level PressureIn, Mean Sea Level PressureIn, Min Sea Level PressureIn, Max VisibilityMiles, Mean VisibilityMiles, Min VisibilityMiles, Max Wind SpeedMPH, Mean Wind SpeedMPH, Max Gust SpeedMPH,PrecipitationIn, CloudCover, Events, WindDirDegrees
2012-8-1,90,87,83,76,74,72,74,69,59,30.02,29.98,29.94,10,10,10,15,9,18,0.00,1,,249
2012-8-2,90,84,77,76,74,72,91,72,56,30.01,29.97,29.93,10,10,10,13,6,20,0.00,1,,235
2012-8-3,92,84,75,76,72,68,94,73,52,30.03,29.98,29.94,10,10,10,18,6,24,0.00,1,,94
2012-8-4,95,85,74,74,71,70,94,69,46,30.04,30.00,29.96,10,10,10,14,5,18,0.00,1,,33
2012-8-5,91,84,76,76,73,70,94,78,59,30.08,30.05,29.99,10,9,2,18,7,25,0.13,3,Rain,111
2012-8-6,91,83,74,77,74,70,94,85,59,30.08,30.02,29.98,10,8,2,23,7,28,0.75,3,Rain,103
2012-8-7,90,82,74,77,75,73,94,81,64,30.03,30.00,29.96,10,10,10,12,5,14,T,1,,123
2012-8-8,91,85,78,76,74,72,91,73,59,30.05,30.01,29.97,10,10,10,12,6,16,0.00,1,,157
2012-8-9,92,85,77,75,73,69,88,70,49,30.02,29.98,29.91,10,10,10,13,7,16,0.00,0,,121
2012-8-10,91,84,77,76,73,70,88,73,59,29.99,29.95,29.92,10,10,10,14,5,18,0.01,1,Rain,134
2012-8-11,91,83,75,75,73,71,87,73,59,30.03,29.97,29.92,10,10,2,16,6,20,0.99,2,Rain,242
2012-8-12,91,83,74,76,74,72,91,80,59,30.06,30.02,29.97,10,7,0,24,5,26,2.94,4,Fog-Rain,185
2012-8-13,89,83,77,76,74,72,94,78,63,30.08,30.05,30.00,10,10,2,12,4,14,0.07,2,Rain,191
2012-8-14,91,84,77,77,74,71,91,75,60,30.05,30.01,29.98,10,10,10,17,6,21,0.03,1,,141
2012-8-15,91,83,75,76,74,71,94,75,59,30.05,30.01,29.97,10,10,10,10,4,14,T,0,Rain,156
2012-8-16,90,84,77,77,75,73,91,78,59,30.09,30.04,29.99,10,9,2,16,4,18,0.28,2,Rain,194
2012-8-17,90,84,78,77,75,73,97,77,59,30.04,30.00,29.94,10,10,10,15,5,20,T,2,Rain,219
2012-8-18,84,81,77,76,74,72,91,81,70,30.01,29.96,29.90,10,9,2,25,5,30,0.36,3,Rain,233
2012-8-19,91,84,76,77,75,68,94,77,53,30.02,29.96,29.92,10,10,2,20,9,24,0.40,3,Rain,194
2012-8-20,91,84,77,77,75,72,94,74,59,30.03,29.96,29.90,10,10,2,24,10,31,0.22,2,Rain,224
2012-8-21,91,82,73,77,74,70,100,82,56,30.10,30.02,29.95,10,8,2,29,10,39,0.68,4,Rain,165
2012-8-22,90,82,73,75,72,69,94,82,56,30.10,30.05,30.01,10,9,1,26,7,33,0.38,3,Rain,136
2012-8-23,91,82,73,74,72,68,93,74,50,30.09,30.05,30.01,10,10,10,13,5,17,0.00,0,,42
2012-8-24,93,84,75,75,72,68,94,70,47,30.05,30.00,29.92,10,10,10,15,7,20,0.00,0,,58
2012-8-25,92,83,74,73,70,67,94,70,52,30.00,29.96,29.92,10,10,10,22,10,26,0.00,0,,69
2012-8-26,85,81,76,75,73,70,88,82,74,29.96,29.85,29.76,10,10,2,23,14,33,0.82,4,Rain,50
2012-8-27,89,83,77,79,75,73,94,84,68,29.84,29.72,29.67,10,9,2,36,18,47,0.62,8,Rain,110
2012-8-28,89,83,77,78,76,73,97,79,68,29.97,29.89,29.84,10,10,2,30,14,36,0.44,4,Rain,159
2012-8-29,89,83,76,78,75,73,97,82,63,29.98,29.94,29.90,10,10,8,21,10,26,0.01,2,Rain,154
2012-8-30,90,83,76,77,75,72,94,78,56,30.11,30.02,29.96,10,10,10,14,5,16,0.00,1,,187
2012-8-31,93,85,76,77,74,69,94,75,49,30.16,30.11,30.07,10,9,2,26,5,33,0.45,2,Rain,87